createdAt,value
2019-04-21T00:01:37.656Z,12.60
2019-04-21T00:04:19.909Z,12.60
2019-04-21T00:06:58.770Z,12.60
2019-04-21T00:09:32.645Z,12.30
2019-04-21T00:12:02.536Z,12.20
2019-04-21T00:14:23.651Z,12.00
2019-04-21T00:16:55.600Z,11.90
2019-04-21T00:19:21.733Z,11.90
2019-04-21T00:21:55.336Z,11.90
2019-04-21T00:24:35.016Z,11.80
2019-04-21T00:27:12.542Z,12.00
2019-04-21T00:29:47.846Z,12.00
2019-04-21T00:32:10.512Z,11.90
2019-04-21T00:34:28.111Z,11.80
2019-04-21T00:37:11.017Z,11.80
2019-04-21T00:39:55.701Z,11.80
2019-04-21T00:42:19.947Z,11.90
2019-04-21T00:44:52.036Z,12.20
2019-04-21T00:47:33.022Z,12.30
2019-04-21T00:50:02.259Z,12.30
2019-04-21T00:52:49.205Z,12.30
2019-04-21T00:55:21.866Z,12.30
2019-04-21T01:00:20.240Z,12.40
2019-04-21T01:02:49.939Z,12.40
2019-04-21T01:05:21.348Z,12.20
2019-04-21T01:07:45.441Z,12.20
2019-04-21T01:10:14.914Z,12.10
2019-04-21T01:12:54.936Z,12.00
2019-04-21T01:17:56.021Z,11.80
2019-04-21T01:20:17.273Z,11.80
2019-04-21T01:22:43.039Z,11.80
2019-04-21T01:25:20.283Z,11.80
2019-04-21T01:27:59.715Z,11.90
2019-04-21T01:30:39.890Z,12.00
2019-04-21T01:33:12.401Z,12.20
2019-04-21T01:35:44.267Z,12.20
2019-04-21T01:38:19.174Z,12.40
2019-04-21T01:40:47.658Z,12.40
2019-04-21T01:43:13.666Z,12.40
2019-04-21T01:45:49.378Z,12.40
2019-04-21T01:48:22.893Z,12.40
2019-04-21T01:50:51.165Z,12.50
2019-04-21T01:53:48.580Z,12.50
2019-04-21T01:56:21.711Z,12.30
2019-04-21T01:58:42.904Z,12.00
2019-04-21T02:01:24.689Z,12.00
2019-04-21T02:03:56.961Z,12.20
2019-04-21T02:06:27.660Z,12.30
2019-04-21T02:08:58.080Z,12.30
2019-04-21T02:11:31.270Z,12.40
2019-04-21T02:14:12.918Z,12.40
2019-04-21T02:16:34.579Z,12.30
2019-04-21T02:19:04.416Z,12.20
2019-04-21T02:21:36.989Z,12.00
2019-04-21T02:24:25.454Z,11.90
2019-04-21T02:26:42.995Z,11.70
2019-04-21T02:29:17.355Z,11.30
2019-04-21T02:32:10.524Z,11.00
2019-04-21T02:34:23.907Z,10.90
2019-04-21T02:39:35.537Z,10.90
2019-04-21T02:42:05.611Z,10.80
2019-04-21T02:44:46.257Z,10.70
2019-04-21T02:47:05.212Z,10.70
2019-04-21T02:49:56.591Z,10.60
2019-04-21T02:59:59.955Z,10.50
2019-04-21T03:02:35.006Z,10.50
2019-04-21T03:05:21.042Z,10.50
2019-04-21T03:07:56.385Z,10.70
2019-04-21T03:10:22.300Z,10.90
2019-04-21T03:12:47.811Z,11.00
2019-04-21T03:15:21.909Z,11.10
2019-04-21T03:18:01.775Z,11.20
2019-04-21T03:20:23.851Z,11.10
2019-04-21T03:23:00.186Z,11.00
2019-04-21T03:38:14.711Z,10.30
2019-04-21T03:43:12.642Z,10.00
2019-04-21T03:48:24.160Z,9.90
2019-04-21T03:51:07.394Z,9.70
2019-04-21T03:55:53.450Z,9.50
2019-04-21T04:04:10.019Z,9.10
2019-04-21T04:06:24.546Z,9.10
2019-04-21T04:09:12.787Z,9.20
2019-04-21T04:11:37.776Z,9.00
2019-04-21T04:14:20.404Z,8.90
2019-04-21T04:16:37.191Z,8.70
2019-04-21T04:19:09.634Z,9.00
2019-04-21T04:24:36.125Z,9.00
2019-04-21T04:26:47.198Z,9.00
2019-04-21T04:29:22.457Z,8.90
2019-04-21T04:31:42.707Z,9.00
2019-04-21T04:34:41.671Z,8.90
2019-04-21T04:39:42.871Z,9.00
2019-04-21T04:42:16.354Z,8.90
2019-04-21T04:44:49.993Z,9.00
2019-04-21T04:47:10.292Z,9.00
2019-04-21T04:57:34.297Z,9.20
2019-04-21T05:02:27.812Z,9.40
2019-04-21T05:07:27.136Z,9.50
2019-04-21T05:09:52.236Z,9.60
2019-04-21T05:12:26.820Z,9.80
2019-04-21T05:14:51.805Z,10.00
2019-04-21T05:22:29.050Z,10.40
2019-04-21T05:24:53.759Z,10.20
2019-04-21T05:27:48.280Z,10.00
2019-04-21T05:30:29.122Z,10.20
2019-04-21T05:33:18.791Z,10.70
2019-04-21T05:35:55.478Z,10.80
2019-04-21T05:38:39.245Z,11.20
2019-04-21T05:41:05.132Z,11.50
2019-04-21T05:43:43.033Z,11.90
2019-04-21T05:46:21.231Z,12.00
2019-04-21T05:49:08.034Z,12.30
2019-04-21T05:51:30.608Z,12.70
2019-04-21T05:54:19.310Z,13.10
2019-04-21T05:56:40.790Z,13.50
2019-04-21T05:59:12.218Z,14.00
2019-04-21T06:01:46.731Z,14.40
2019-04-21T06:04:26.510Z,14.70
2019-04-21T06:06:55.427Z,14.90
2019-04-21T06:09:19.039Z,15.10
2019-04-21T06:11:51.620Z,15.20
2019-04-21T06:14:21.696Z,15.50
2019-04-21T06:16:58.754Z,15.80
2019-04-21T06:19:36.708Z,15.80
2019-04-21T06:22:28.972Z,15.60
2019-04-21T06:25:31.123Z,15.90
2019-04-21T06:27:37.726Z,15.90
2019-04-21T06:30:10.436Z,15.80
2019-04-21T06:32:49.120Z,16.10
2019-04-21T06:35:39.953Z,16.00
2019-04-21T06:38:03.796Z,16.40
2019-04-21T06:40:42.551Z,16.90
2019-04-21T06:43:18.246Z,16.70
2019-04-21T06:45:39.988Z,16.80
2019-04-21T06:48:12.216Z,16.50
2019-04-21T06:50:46.638Z,16.80
2019-04-21T06:53:20.684Z,17.10
2019-04-21T06:55:44.114Z,17.20
2019-04-21T06:58:18.384Z,17.10
2019-04-21T07:00:50.960Z,17.10
2019-04-21T07:03:29.716Z,17.40
2019-04-21T07:06:03.543Z,17.70
2019-04-21T07:08:51.482Z,17.70
2019-04-21T07:10:59.171Z,18.00
2019-04-21T07:13:31.229Z,18.50
2019-04-21T07:16:04.784Z,18.30
2019-04-21T07:18:34.305Z,18.00
2019-04-21T07:21:06.422Z,18.20
2019-04-21T07:23:40.503Z,18.40
2019-04-21T07:26:10.413Z,18.50
2019-04-21T07:28:49.753Z,18.80
2019-04-21T07:31:31.487Z,19.40
2019-04-21T07:33:53.435Z,19.50
2019-04-21T07:36:21.854Z,19.60
2019-04-21T07:38:45.249Z,18.90
2019-04-21T07:41:13.585Z,19.00
2019-04-21T07:43:55.285Z,19.30
2019-04-21T07:46:27.325Z,19.40
2019-04-21T07:49:11.118Z,19.40
2019-04-21T07:51:47.650Z,19.50
2019-04-21T07:54:26.854Z,19.30
2019-04-21T07:56:35.032Z,19.20
2019-04-21T07:59:21.302Z,19.60
2019-04-21T08:01:55.022Z,19.40
2019-04-21T08:04:42.454Z,19.70
2019-04-21T08:06:55.435Z,19.90
2019-04-21T08:09:26.050Z,19.90
2019-04-21T08:11:53.319Z,20.10
2019-04-21T08:17:03.164Z,20.40
2019-04-21T08:19:38.333Z,20.10
2019-04-21T08:22:12.515Z,20.00
2019-04-21T08:24:43.757Z,20.00
2019-04-21T08:27:12.056Z,20.30
2019-04-21T08:29:46.520Z,20.00
2019-04-21T08:32:14.505Z,20.20
2019-04-21T08:34:55.185Z,20.40
2019-04-21T08:37:18.305Z,20.20
2019-04-21T08:40:05.099Z,20.10
2019-04-21T08:42:27.124Z,20.30
2019-04-21T08:44:55.816Z,20.30
2019-04-21T08:47:25.532Z,20.30
2019-04-21T08:50:02.151Z,20.50
2019-04-21T08:52:42.748Z,20.50
2019-04-21T08:55:19.344Z,20.50
2019-04-21T08:58:03.937Z,20.50
2019-04-21T09:00:35.949Z,20.30
2019-04-21T09:03:11.786Z,20.20
2019-04-21T09:05:39.354Z,20.30
2019-04-21T09:08:13.770Z,20.60
2019-04-21T09:10:40.006Z,20.40
2019-04-21T09:13:10.127Z,20.30
2019-04-21T09:15:41.890Z,20.30
2019-04-21T09:18:17.295Z,20.40
2019-04-21T09:20:55.307Z,20.50
2019-04-21T09:23:19.403Z,20.30
2019-04-21T09:25:55.407Z,20.30
2019-04-21T09:28:20.061Z,20.30
2019-04-21T09:30:43.319Z,20.40
2019-04-21T09:33:09.275Z,20.30
2019-04-21T09:35:50.134Z,20.60
2019-04-21T09:38:22.733Z,20.60
2019-04-21T09:40:48.982Z,20.80
2019-04-21T09:43:27.032Z,20.70
2019-04-21T09:45:47.831Z,20.80
2019-04-21T09:48:21.051Z,21.00
2019-04-21T09:50:50.411Z,21.10
2019-04-21T09:53:28.746Z,21.00
2019-04-21T09:55:58.113Z,20.90
2019-04-21T09:58:32.873Z,20.80
2019-04-21T10:01:07.489Z,21.00
2019-04-21T10:03:39.665Z,20.90
2019-04-21T10:06:00.677Z,21.10
2019-04-21T10:08:31.857Z,21.50
2019-04-21T10:11:03.279Z,21.50
2019-04-21T10:13:34.478Z,21.40
2019-04-21T10:16:18.166Z,21.40
2019-04-21T10:18:48.347Z,21.60
2019-04-21T10:21:19.786Z,22.00
2019-04-21T10:23:50.141Z,21.80
2019-04-21T10:26:20.386Z,21.90
2019-04-21T10:28:51.023Z,21.80
2019-04-21T10:31:21.261Z,21.70
2019-04-21T10:33:52.521Z,21.50
2019-04-21T10:36:22.817Z,21.80
2019-04-21T10:38:53.998Z,21.60
2019-04-21T10:41:25.557Z,21.80
2019-04-21T10:43:55.807Z,21.70
2019-04-21T10:46:26.658Z,21.70
2019-04-21T10:48:56.942Z,22.00
2019-04-21T10:51:27.053Z,21.80
2019-04-21T10:53:57.964Z,22.10
2019-04-21T10:56:34.371Z,22.10
2019-04-21T10:59:00.331Z,22.00
2019-04-21T11:01:31.496Z,22.20
2019-04-21T11:04:19.571Z,22.20
2019-04-21T11:06:42.108Z,22.40
2019-04-21T11:09:13.756Z,22.30
2019-04-21T11:11:46.486Z,22.00
2019-04-21T11:14:15.876Z,21.80
2019-04-21T11:16:47.686Z,21.60
2019-04-21T11:19:18.139Z,21.80
2019-04-21T11:21:49.313Z,21.90
2019-04-21T11:24:20.822Z,22.20
2019-04-21T11:26:51.970Z,21.70
2019-04-21T11:29:23.286Z,21.80
2019-04-21T11:31:54.753Z,22.20
2019-04-21T11:34:25.173Z,22.30
2019-04-21T11:36:56.347Z,22.50
2019-04-21T11:39:37.575Z,22.20
2019-04-21T11:42:03.656Z,22.40
2019-04-21T11:44:35.193Z,22.50
2019-04-21T11:47:07.106Z,22.70
2019-04-21T11:49:37.257Z,22.50
2019-04-21T11:52:07.326Z,22.60
2019-04-21T11:54:37.559Z,22.50
2019-04-21T11:57:14.015Z,22.30
2019-04-21T11:59:39.667Z,22.40
2019-04-21T12:02:09.870Z,22.40
2019-04-21T12:04:41.205Z,22.30
2019-04-21T12:07:11.529Z,22.70
2019-04-21T12:09:41.794Z,22.80
2019-04-21T12:12:12.053Z,22.70
2019-04-21T12:14:42.235Z,22.70
2019-04-21T12:17:14.140Z,22.80
2019-04-21T12:19:44.766Z,22.90
2019-04-21T12:22:21.279Z,22.80
2019-04-21T12:24:49.067Z,22.90
2019-04-21T12:27:20.368Z,23.00
2019-04-21T12:29:51.663Z,23.30
2019-04-21T12:32:33.751Z,23.10
2019-04-21T12:35:06.112Z,23.00
2019-04-21T12:37:37.176Z,23.10
2019-04-21T12:40:08.511Z,23.40
2019-04-21T12:42:40.857Z,23.40
2019-04-21T12:45:13.106Z,23.30
2019-04-21T12:47:44.004Z,23.40
2019-04-21T12:50:14.861Z,23.10
2019-04-21T12:52:47.347Z,23.10
2019-04-21T12:55:17.822Z,23.10
2019-04-21T12:57:48.037Z,23.10
2019-04-21T13:00:22.817Z,23.20
2019-04-21T13:02:53.980Z,23.40
2019-04-21T13:05:25.484Z,23.30
2019-04-21T13:07:55.790Z,23.20
2019-04-21T13:10:26.424Z,23.40
2019-04-21T13:12:56.613Z,23.40
2019-04-21T13:15:27.350Z,23.40
2019-04-21T13:17:58.475Z,23.30
2019-04-21T13:20:29.736Z,23.30
2019-04-21T13:22:59.878Z,23.30
2019-04-21T13:25:31.749Z,23.60
2019-04-21T13:28:02.901Z,23.80
2019-04-21T13:30:33.097Z,23.70
2019-04-21T13:33:03.312Z,23.90
2019-04-21T13:35:35.099Z,24.30
2019-04-21T13:38:17.300Z,24.20
2019-04-21T13:41:10.736Z,23.60
2019-04-21T13:43:27.257Z,23.40
2019-04-21T13:45:57.653Z,24.00
2019-04-21T13:48:28.616Z,24.10
2019-04-21T13:50:59.539Z,24.00
2019-04-21T13:53:31.111Z,24.10
2019-04-21T13:56:02.602Z,24.20
2019-04-21T13:58:32.859Z,24.40
2019-04-21T14:01:03.502Z,23.90
2019-04-21T14:03:33.767Z,23.80
2019-04-21T14:06:04.537Z,24.10
2019-04-21T14:08:59.024Z,24.60
2019-04-21T14:11:29.339Z,24.30
2019-04-21T14:14:00.592Z,23.90
2019-04-21T14:16:32.044Z,24.10
2019-04-21T14:19:03.374Z,24.00
2019-04-21T14:21:33.778Z,23.90
2019-04-21T14:24:05.166Z,23.90
2019-04-21T14:26:36.274Z,24.30
2019-04-21T14:29:07.637Z,23.90
2019-04-21T14:31:38.253Z,23.80
2019-04-21T14:34:08.537Z,23.70
2019-04-21T14:36:38.962Z,23.70
2019-04-21T14:39:10.640Z,23.60
2019-04-21T14:41:42.121Z,23.90
2019-04-21T14:44:13.196Z,23.90
2019-04-21T14:46:49.234Z,23.50
2019-04-21T14:49:23.742Z,23.20
2019-04-21T14:52:00.972Z,23.20
2019-04-21T14:54:33.173Z,23.40
2019-04-21T14:57:03.542Z,23.80
2019-04-21T14:59:35.203Z,23.60
2019-04-21T15:02:05.744Z,23.90
2019-04-21T15:04:37.574Z,24.00
2019-04-21T15:07:09.547Z,23.90
2019-04-21T15:09:41.552Z,23.60
2019-04-21T15:12:11.873Z,23.50
2019-04-21T15:14:42.287Z,23.60
2019-04-21T15:17:15.372Z,23.60
2019-04-21T15:19:50.906Z,23.50
2019-04-21T15:22:16.501Z,23.80
2019-04-21T15:24:48.025Z,23.90
2019-04-21T15:27:18.998Z,23.90
2019-04-21T15:29:49.119Z,23.70
2019-04-21T15:32:19.324Z,23.90
2019-04-21T15:34:49.896Z,23.60
2019-04-21T15:37:20.124Z,23.40
2019-04-21T15:39:51.180Z,23.00
2019-04-21T15:42:21.349Z,23.10
2019-04-21T15:44:52.443Z,23.30
2019-04-21T15:47:22.520Z,23.30
2019-04-21T15:50:02.771Z,23.10
2019-04-21T15:52:28.024Z,23.40
2019-04-21T15:55:05.503Z,23.10
2019-04-21T15:57:54.315Z,23.00
2019-04-21T16:00:42.695Z,23.10
2019-04-21T16:03:16.569Z,23.00
2019-04-21T16:05:46.819Z,23.10
2019-04-21T16:08:18.258Z,22.90
2019-04-21T16:10:54.914Z,23.00
2019-04-21T16:13:21.600Z,23.20
2019-04-21T16:15:52.504Z,23.20
2019-04-21T16:18:24.413Z,23.30
2019-04-21T16:20:55.803Z,23.50
2019-04-21T16:23:26.650Z,23.50
2019-04-21T16:25:57.088Z,23.30
2019-04-21T16:28:42.468Z,23.50
2019-04-21T16:31:20.315Z,23.50
2019-04-21T16:33:51.276Z,23.40
2019-04-21T16:36:21.545Z,23.40
2019-04-21T16:38:53.635Z,23.00
2019-04-21T16:41:24.407Z,22.90
2019-04-21T16:43:55.420Z,22.70
2019-04-21T16:46:25.533Z,22.50
2019-04-21T16:48:55.970Z,22.60
2019-04-21T16:51:28.455Z,22.80
2019-04-21T16:54:01.790Z,22.80
2019-04-21T16:56:37.428Z,22.60
2019-04-21T16:59:10.610Z,22.30
2019-04-21T17:01:42.728Z,22.10
2019-04-21T17:04:13.019Z,22.00
2019-04-21T17:06:45.019Z,22.00
2019-04-21T17:09:16.669Z,22.10
2019-04-21T17:11:48.520Z,21.80
2019-04-21T17:14:35.497Z,21.60
2019-04-21T17:17:15.754Z,21.50
2019-04-21T17:19:29.131Z,21.30
2019-04-21T17:21:55.283Z,21.10
2019-04-21T17:24:26.455Z,20.60
2019-04-21T17:26:57.432Z,20.60
2019-04-21T17:29:28.721Z,20.50
2019-04-21T17:31:59.690Z,20.20
2019-04-21T17:34:32.547Z,20.00
2019-04-21T17:37:03.580Z,19.70
2019-04-21T17:39:34.601Z,19.60
2019-04-21T17:42:13.959Z,19.50
2019-04-21T17:44:37.357Z,19.40
2019-04-21T17:47:19.232Z,19.20
2019-04-21T17:49:41.027Z,19.10
2019-04-21T17:52:18.174Z,19.00
2019-04-21T17:54:51.190Z,18.80
2019-04-21T17:57:39.273Z,18.60
2019-04-21T18:00:14.096Z,18.50
2019-04-21T18:02:47.937Z,18.30
2019-04-21T18:05:17.967Z,18.30
2019-04-21T18:07:47.826Z,18.00
2019-04-21T18:10:19.065Z,17.90
2019-04-21T18:12:43.574Z,17.80
2019-04-21T18:15:21.848Z,17.60
2019-04-21T18:17:38.707Z,17.50
2019-04-21T18:20:12.083Z,17.50
2019-04-21T18:23:00.497Z,17.40
2019-04-21T18:25:45.180Z,17.30
2019-04-21T18:28:04.912Z,17.30
2019-04-21T18:30:48.727Z,17.20
2019-04-21T18:33:25.076Z,17.20
2019-04-21T18:36:01.944Z,17.10
2019-04-21T18:39:01.233Z,17.10
2019-04-21T18:41:13.473Z,17.10
2019-04-21T18:44:28.804Z,17.00
2019-04-21T18:46:58.710Z,16.90
2019-04-21T18:49:17.386Z,16.80
2019-04-21T18:52:02.499Z,16.70
2019-04-21T18:54:47.080Z,16.60
2019-04-21T18:57:07.876Z,16.40
2019-04-21T18:59:36.103Z,16.30
2019-04-21T19:02:08.055Z,16.30
2019-04-21T19:04:37.574Z,16.20
2019-04-21T19:07:20.096Z,16.10
2019-04-21T19:10:19.104Z,16.10
2019-04-21T19:12:47.978Z,15.90
2019-04-21T19:15:02.430Z,15.90
2019-04-21T19:22:38.704Z,15.50
2019-04-21T19:25:12.938Z,15.50
2019-04-21T19:27:45.201Z,15.50
2019-04-21T19:30:21.674Z,15.50
2019-04-21T19:32:45.194Z,15.40
2019-04-21T19:35:01.639Z,15.40
2019-04-21T19:37:40.081Z,15.40
2019-04-21T19:40:15.820Z,15.40
2019-04-21T19:42:43.779Z,15.20
2019-04-21T19:45:22.407Z,15.10
2019-04-21T19:48:01.000Z,15.10
2019-04-21T19:50:35.065Z,15.10
2019-04-21T19:52:51.911Z,15.30
2019-04-21T19:55:16.066Z,15.20
2019-04-21T19:57:47.069Z,15.20
2019-04-21T20:00:18.971Z,15.20
2019-04-21T20:02:50.439Z,15.10
2019-04-21T20:05:30.416Z,15.10
2019-04-21T20:08:08.319Z,15.10
2019-04-21T20:10:47.205Z,15.10
2019-04-21T20:13:26.118Z,15.00
2019-04-21T20:15:44.704Z,14.80
2019-04-21T20:18:14.055Z,14.80
2019-04-21T20:20:32.785Z,14.70
2019-04-21T20:23:03.163Z,14.70
2019-04-21T20:25:41.754Z,14.70
2019-04-21T20:28:13.292Z,14.60
2019-04-21T20:30:59.556Z,14.60
2019-04-21T20:33:48.729Z,14.60
2019-04-21T20:36:02.170Z,14.50
2019-04-21T20:38:26.447Z,14.40
2019-04-21T20:40:56.711Z,14.40
2019-04-21T20:43:38.064Z,14.40
2019-04-21T20:46:08.250Z,14.40
2019-04-21T20:48:34.062Z,14.30
2019-04-21T20:51:25.620Z,14.40
2019-04-21T20:53:43.887Z,14.30
2019-04-21T20:56:08.628Z,14.30
2019-04-21T20:58:45.156Z,14.30
2019-04-21T21:03:47.902Z,14.20
2019-04-21T21:06:19.513Z,14.10
2019-04-21T21:08:49.923Z,14.10
2019-04-21T21:11:28.014Z,14.00
2019-04-21T21:14:00.379Z,14.00
2019-04-21T21:16:29.657Z,14.00
2019-04-21T21:21:32.731Z,13.80
2019-04-21T21:24:05.404Z,13.90
2019-04-21T21:26:36.944Z,13.90
2019-04-21T21:28:57.547Z,14.00
2019-04-21T21:31:37.191Z,13.90
2019-04-21T21:34:15.296Z,13.80
2019-04-21T21:36:43.200Z,13.70
2019-04-21T21:39:15.776Z,13.70
2019-04-21T21:41:36.827Z,13.70
2019-04-21T21:44:05.871Z,13.70
2019-04-21T21:46:44.132Z,13.60
2019-04-21T21:49:20.789Z,13.60
2019-04-21T21:51:47.243Z,13.40
2019-04-21T21:54:09.626Z,13.50
2019-04-21T21:56:40.797Z,13.50
2019-04-21T21:59:16.477Z,13.40
2019-04-21T22:01:46.995Z,13.40
2019-04-21T22:04:20.957Z,13.40
2019-04-21T22:06:57.581Z,13.40
2019-04-21T22:09:18.626Z,13.40
2019-04-21T22:11:53.559Z,13.30
2019-04-21T22:14:28.287Z,13.30
2019-04-21T22:17:10.700Z,13.30
2019-04-21T22:19:41.720Z,13.30
2019-04-21T22:22:16.863Z,13.30
2019-04-21T22:24:41.446Z,13.30
2019-04-21T22:26:59.456Z,13.30
2019-04-21T22:29:39.195Z,13.20
2019-04-21T22:32:09.515Z,13.20
2019-04-21T22:34:40.295Z,13.30
2019-04-21T22:37:21.223Z,13.40
2019-04-21T22:39:54.313Z,13.40
2019-04-21T22:42:17.332Z,13.40
2019-04-21T22:44:40.652Z,13.40
2019-04-21T22:47:17.195Z,13.50
2019-04-21T22:49:42.688Z,13.50
2019-04-21T22:52:18.697Z,13.50
2019-04-21T22:54:46.746Z,13.50
2019-04-21T22:57:19.846Z,13.50
2019-04-21T22:59:54.862Z,13.60
2019-04-21T23:02:25.911Z,13.60
2019-04-21T23:04:57.660Z,13.50
2019-04-21T23:07:24.724Z,13.50
2019-04-21T23:09:55.563Z,13.40
2019-04-21T23:12:29.669Z,13.30
2019-04-21T23:15:05.838Z,13.30
2019-04-21T23:17:50.195Z,13.40
2019-04-21T23:20:22.649Z,13.40
2019-04-21T23:23:00.862Z,13.40
2019-04-21T23:25:24.478Z,13.40
2019-04-21T23:27:56.211Z,13.40
2019-04-21T23:30:33.812Z,13.40
2019-04-21T23:32:50.215Z,13.40
2019-04-21T23:35:21.824Z,13.20
2019-04-21T23:37:55.667Z,13.20
2019-04-21T23:40:21.813Z,13.20
2019-04-21T23:42:51.228Z,13.20
2019-04-21T23:45:25.148Z,13.10
2019-04-21T23:48:08.060Z,13.20
2019-04-21T23:50:34.216Z,13.20
2019-04-21T23:52:57.466Z,13.20
2019-04-21T23:55:27.688Z,13.10
2019-04-21T23:58:06.999Z,13.00
